createdAt,value
2023-03-22T00:02:26.313Z,98451.56
2023-03-22T00:04:54.673Z,98432.34
2023-03-22T00:07:22.887Z,98430.72
2023-03-22T00:09:52.648Z,98410.88
2023-03-22T00:12:20.831Z,98408.50
2023-03-22T00:14:49.597Z,98420.06
2023-03-22T00:17:18.508Z,98417.53
2023-03-22T00:19:47.526Z,98424.66
2023-03-22T00:22:16.373Z,98425.44
2023-03-22T00:24:44.838Z,98420.41
2023-03-22T00:27:14.400Z,98413.53
2023-03-22T00:29:42.622Z,98419.38
2023-03-22T00:32:10.818Z,98412.22
2023-03-22T00:34:38.999Z,98421.00
2023-03-22T00:37:08.171Z,98441.28
2023-03-22T00:39:36.400Z,98444.75
2023-03-22T00:42:05.387Z,98446.69
2023-03-22T00:44:35.103Z,98431.31
2023-03-22T00:47:03.363Z,98450.34
2023-03-22T00:49:31.734Z,98454.84
2023-03-22T00:51:59.883Z,98485.97
2023-03-22T00:54:28.032Z,98469.66
2023-03-22T00:56:56.320Z,98490.47
2023-03-22T00:59:24.809Z,98490.94
2023-03-22T01:01:54.453Z,98493.13
2023-03-22T01:04:26.375Z,98504.00
2023-03-22T01:06:59.381Z,98522.72
2023-03-22T01:09:31.066Z,98546.66
2023-03-22T01:11:59.947Z,98545.84
2023-03-22T01:14:28.618Z,98587.88
2023-03-22T01:16:58.541Z,98594.22
2023-03-22T01:19:27.645Z,98624.16
2023-03-22T01:21:56.276Z,98623.94
2023-03-22T01:24:25.079Z,98646.09
2023-03-22T01:26:53.447Z,98670.25
2023-03-22T01:29:21.983Z,98682.09
2023-03-22T01:31:50.195Z,98703.91
2023-03-22T01:34:19.961Z,98684.38
2023-03-22T01:36:48.113Z,98741.25
2023-03-22T01:39:16.547Z,98737.78
2023-03-22T01:41:44.878Z,98759.91
2023-03-22T01:44:15.607Z,98767.59
2023-03-22T01:46:44.846Z,98769.47
2023-03-22T01:49:17.224Z,98769.72
2023-03-22T01:51:50.733Z,98770.75
2023-03-22T01:54:26.231Z,98793.56
2023-03-22T01:56:54.502Z,98796.22
2023-03-22T01:59:23.638Z,98801.94
2023-03-22T02:01:51.898Z,98798.56
2023-03-22T02:04:23.506Z,98803.81
2023-03-22T02:06:58.036Z,98808.78
2023-03-22T02:09:26.243Z,98836.38
2023-03-22T02:12:06.979Z,98850.66
2023-03-22T02:14:59.771Z,98858.25
2023-03-22T02:17:35.421Z,98874.31
2023-03-22T02:20:41.929Z,98882.69
2023-03-22T02:23:54.496Z,98894.88
2023-03-22T02:26:53.513Z,98907.66
2023-03-22T02:29:30.182Z,98917.78
2023-03-22T02:32:40.053Z,98917.63
2023-03-22T02:35:34.698Z,98927.38
2023-03-22T02:38:45.965Z,98937.72
2023-03-22T02:41:22.926Z,98938.38
2023-03-22T02:44:02.991Z,98931.09
2023-03-22T02:46:38.982Z,98935.72
2023-03-22T02:49:16.036Z,98949.91
2023-03-22T02:51:48.072Z,98954.56
2023-03-22T02:54:23.962Z,98946.94
2023-03-22T02:57:00.446Z,98976.06
2023-03-22T02:59:32.622Z,98976.28
2023-03-22T03:02:04.601Z,98982.56
2023-03-22T03:04:36.697Z,98974.31
2023-03-22T03:07:09.495Z,98980.56
2023-03-22T03:09:39.336Z,98991.69
2023-03-22T03:12:16.000Z,98986.03
2023-03-22T03:14:44.116Z,98986.44
2023-03-22T03:17:23.497Z,98999.41
2023-03-22T03:20:02.891Z,99010.91
2023-03-22T03:22:46.103Z,99020.88
2023-03-22T03:25:22.851Z,99010.75
2023-03-22T03:28:01.228Z,99030.56
2023-03-22T03:30:35.475Z,99028.34
2023-03-22T03:33:10.624Z,99030.38
2023-03-22T03:35:43.786Z,99033.63
2023-03-22T03:38:15.280Z,99036.03
2023-03-22T03:40:46.125Z,99047.59
2023-03-22T03:43:16.823Z,99053.44
2023-03-22T03:45:46.211Z,99064.78
2023-03-22T03:48:20.146Z,99074.06
2023-03-22T03:50:50.439Z,99077.28
2023-03-22T03:53:18.588Z,99080.75
2023-03-22T03:55:46.731Z,99103.81
2023-03-22T03:58:17.326Z,99094.69
2023-03-22T04:00:46.848Z,99112.47
2023-03-22T04:03:15.884Z,99104.59
2023-03-22T04:05:44.159Z,99102.34
2023-03-22T04:08:12.381Z,99119.75
2023-03-22T04:10:40.985Z,99129.66
2023-03-22T04:13:09.299Z,99122.56
2023-03-22T04:15:38.846Z,99130.44
2023-03-22T04:18:07.238Z,99130.25
2023-03-22T04:20:35.526Z,99136.50
2023-03-22T04:23:03.691Z,99135.06
2023-03-22T04:25:34.017Z,99130.03
2023-03-22T04:28:04.429Z,99130.81
2023-03-22T04:30:36.439Z,99143.97
2023-03-22T04:33:07.322Z,99142.94
2023-03-22T04:35:35.852Z,99156.47
2023-03-22T04:38:04.147Z,99164.34
2023-03-22T04:40:36.627Z,99163.16
2023-03-22T04:43:05.099Z,99166.75
2023-03-22T04:45:36.059Z,99168.34
2023-03-22T04:48:07.973Z,99168.34
2023-03-22T04:50:36.078Z,99178.44
2023-03-22T04:53:04.251Z,99179.47
2023-03-22T04:55:34.285Z,99167.75
2023-03-22T04:58:02.543Z,99180.47
2023-03-22T05:00:30.721Z,99176.59
2023-03-22T05:02:59.426Z,99184.91
2023-03-22T05:05:28.933Z,99186.31
2023-03-22T05:07:57.644Z,99193.59
2023-03-22T05:10:25.843Z,99194.78
2023-03-22T05:12:53.981Z,99190.75
2023-03-22T05:15:22.147Z,99194.78
2023-03-22T05:17:50.309Z,99192.97
2023-03-22T05:20:18.970Z,99187.50
2023-03-22T05:22:50.658Z,99200.03
2023-03-22T05:25:19.020Z,99199.00
2023-03-22T05:27:47.049Z,99204.47
2023-03-22T05:30:15.716Z,99203.03
2023-03-22T05:32:44.283Z,99205.28
2023-03-22T05:35:13.025Z,99203.81
2023-03-22T05:37:41.640Z,99207.25
2023-03-22T05:40:12.655Z,99196.38
2023-03-22T05:42:40.845Z,99206.50
2023-03-22T05:45:10.481Z,99208.13
2023-03-22T05:47:39.637Z,99203.88
2023-03-22T05:50:09.779Z,99207.31
2023-03-22T05:52:37.949Z,99216.81
2023-03-22T05:55:07.421Z,99207.13
2023-03-22T05:57:36.941Z,99207.53
2023-03-22T06:00:10.544Z,99208.69
2023-03-22T06:02:38.735Z,99206.09
2023-03-22T06:05:07.949Z,99212.38
2023-03-22T06:07:35.999Z,99210.53
2023-03-22T06:10:04.259Z,99218.19
2023-03-22T06:12:32.696Z,99210.31
2023-03-22T06:15:02.273Z,99223.50
2023-03-22T06:17:30.728Z,99214.75
2023-03-22T06:19:58.963Z,99224.25
2023-03-22T06:22:27.330Z,99228.91
2023-03-22T06:24:55.509Z,99226.88
2023-03-22T06:27:23.656Z,99224.63
2023-03-22T06:29:54.811Z,99233.13
2023-03-22T06:32:24.724Z,99232.31
2023-03-22T06:34:52.765Z,99227.06
2023-03-22T06:37:21.002Z,99220.16
2023-03-22T06:39:49.445Z,99224.03
2023-03-22T06:42:17.602Z,99225.84
2023-03-22T06:44:45.831Z,99214.97
2023-03-22T06:47:14.075Z,99232.91
2023-03-22T06:49:43.698Z,99224.66
2023-03-22T06:52:11.877Z,99226.28
2023-03-22T06:54:39.956Z,99231.47
2023-03-22T06:57:08.240Z,99223.84
2023-03-22T06:59:36.440Z,99215.13
2023-03-22T07:02:04.567Z,99208.31
2023-03-22T07:04:33.310Z,99208.50
2023-03-22T07:07:03.481Z,99215.81
2023-03-22T07:09:31.737Z,99207.75
2023-03-22T07:11:59.940Z,99200.03
2023-03-22T07:14:28.037Z,99195.81
2023-03-22T07:16:56.889Z,99199.69
2023-03-22T07:19:25.844Z,99197.69
2023-03-22T07:21:54.036Z,99184.34
2023-03-22T07:24:23.571Z,99195.06
2023-03-22T07:26:51.636Z,99193.25
2023-03-22T07:29:19.715Z,99194.66
2023-03-22T07:31:47.908Z,99183.97
2023-03-22T07:34:16.456Z,99201.72
2023-03-22T07:36:44.694Z,99202.97
2023-03-22T07:39:12.964Z,99196.09
2023-03-22T07:41:42.528Z,99194.91
2023-03-22T07:44:17.768Z,99197.34
2023-03-22T07:46:46.456Z,99195.13
2023-03-22T07:49:15.340Z,99210.47
2023-03-22T07:51:43.468Z,99200.59
2023-03-22T07:54:14.060Z,99206.06
2023-03-22T07:56:48.134Z,99215.19
2023-03-22T07:59:16.553Z,99195.56
2023-03-22T08:01:45.281Z,99190.13
2023-03-22T08:04:13.473Z,99186.88
2023-03-22T08:06:42.673Z,99189.56
2023-03-22T08:09:10.728Z,99190.16
2023-03-22T08:11:38.896Z,99195.63
2023-03-22T08:14:08.950Z,99190.59
2023-03-22T08:16:38.552Z,99211.66
2023-03-22T08:19:07.559Z,99197.91
2023-03-22T08:21:35.598Z,99201.75
2023-03-22T08:24:03.791Z,99183.75
2023-03-22T08:26:31.976Z,99189.03
2023-03-22T08:29:00.038Z,99179.28
2023-03-22T08:31:29.704Z,99190.84
2023-03-22T08:33:57.922Z,99187.59
2023-03-22T08:36:26.090Z,99182.81
2023-03-22T08:38:54.443Z,99176.50
2023-03-22T08:41:23.712Z,99177.09
2023-03-22T08:43:52.221Z,99173.00
2023-03-22T08:46:20.390Z,99167.31
2023-03-22T08:48:51.584Z,99161.78
2023-03-22T08:51:20.611Z,99173.53
2023-03-22T08:53:49.573Z,99175.72
2023-03-22T08:56:17.865Z,99163.31
2023-03-22T08:58:46.896Z,99183.53
2023-03-22T09:01:16.804Z,99152.47
2023-03-22T09:03:45.020Z,99157.25
2023-03-22T09:06:14.962Z,99149.63
2023-03-22T09:08:43.265Z,99163.22
2023-03-22T09:11:12.218Z,99160.31
2023-03-22T09:13:40.925Z,99171.09
2023-03-22T09:16:09.803Z,99149.72
2023-03-22T09:18:38.261Z,99150.94
2023-03-22T09:21:07.653Z,99137.31
2023-03-22T09:23:38.419Z,99138.50
2023-03-22T09:26:08.176Z,99137.63
2023-03-22T09:28:37.653Z,99142.03
2023-03-22T09:31:09.167Z,99142.69
2023-03-22T09:33:38.966Z,99141.47
2023-03-22T09:36:07.642Z,99140.16
2023-03-22T09:38:37.504Z,99140.38
2023-03-22T09:41:08.731Z,99142.00
2023-03-22T09:43:39.276Z,99125.88
2023-03-22T09:46:14.282Z,99136.66
2023-03-22T09:48:48.395Z,99143.69
2023-03-22T09:51:29.292Z,99161.44
2023-03-22T09:53:58.995Z,99143.22
2023-03-22T09:56:29.241Z,99149.78
2023-03-22T09:59:07.765Z,99145.41
2023-03-22T10:01:43.412Z,99141.31
2023-03-22T10:04:34.560Z,99151.00
2023-03-22T10:07:10.975Z,99142.16
2023-03-22T10:09:50.642Z,99141.13
2023-03-22T10:12:27.210Z,99139.72
2023-03-22T10:15:05.680Z,99142.69
2023-03-22T10:17:36.812Z,99138.53
2023-03-22T10:20:09.629Z,99128.88
2023-03-22T10:22:42.794Z,99128.25
2023-03-22T10:25:18.835Z,99110.94
2023-03-22T10:27:49.947Z,99120.44
2023-03-22T10:30:22.897Z,99122.41
2023-03-22T10:32:58.322Z,99100.22
2023-03-22T10:35:27.193Z,99112.22
2023-03-22T10:37:57.396Z,99103.97
2023-03-22T10:40:30.143Z,99108.81
2023-03-22T10:43:02.166Z,99114.47
2023-03-22T10:45:33.314Z,99118.50
2023-03-22T10:48:05.805Z,99115.19
2023-03-22T10:50:37.118Z,99110.22
2023-03-22T10:53:08.624Z,99108.38
2023-03-22T10:55:42.604Z,99120.81
2023-03-22T10:58:14.949Z,99096.75
2023-03-22T11:00:47.378Z,99105.88
2023-03-22T11:03:30.125Z,99099.63
2023-03-22T11:06:03.652Z,99109.84
2023-03-22T11:08:40.382Z,99099.44
2023-03-22T11:11:17.750Z,99108.19
2023-03-22T11:13:51.770Z,99092.28
2023-03-22T11:16:20.346Z,99096.84
2023-03-22T11:18:48.792Z,99090.13
2023-03-22T11:21:18.566Z,99099.94
2023-03-22T11:23:55.559Z,99095.31
2023-03-22T11:26:31.671Z,99072.97
2023-03-22T11:29:15.140Z,99072.16
2023-03-22T11:31:58.965Z,99072.06
2023-03-22T11:34:29.998Z,99068.22
2023-03-22T11:37:01.260Z,99066.56
2023-03-22T11:39:30.730Z,99063.88
2023-03-22T11:42:04.071Z,99076.09
2023-03-22T11:44:35.960Z,99072.00
2023-03-22T11:47:06.796Z,99084.66
2023-03-22T11:49:43.960Z,99085.53
2023-03-22T11:52:17.712Z,99058.03
2023-03-22T11:54:49.120Z,99058.13
2023-03-22T11:57:22.795Z,99056.38
2023-03-22T11:59:58.766Z,99040.19
2023-03-22T12:02:30.699Z,99032.63
2023-03-22T12:05:06.055Z,99027.41
2023-03-22T12:07:37.956Z,99039.88
2023-03-22T12:10:13.303Z,99045.50
2023-03-22T12:12:48.156Z,99042.22
2023-03-22T12:15:21.428Z,99030.34
2023-03-22T12:17:56.980Z,99039.28
2023-03-22T12:20:39.195Z,99036.88
2023-03-22T12:23:16.727Z,99035.56
2023-03-22T12:25:50.699Z,99028.75
2023-03-22T12:28:24.630Z,99040.16
2023-03-22T12:30:56.259Z,99037.28
2023-03-22T12:33:28.510Z,99026.03
2023-03-22T12:36:00.002Z,99026.38
2023-03-22T12:38:35.649Z,99025.94
2023-03-22T12:41:07.356Z,99015.16
2023-03-22T12:43:44.568Z,99011.38
2023-03-22T12:46:18.925Z,99017.09
2023-03-22T12:48:50.944Z,99013.06
2023-03-22T12:51:19.254Z,99009.78
2023-03-22T12:53:50.389Z,99010.03
2023-03-22T12:56:21.456Z,99008.25
2023-03-22T12:58:53.786Z,98997.69
2023-03-22T13:01:29.751Z,98987.53
2023-03-22T13:03:59.547Z,98986.88
2023-03-22T13:06:34.546Z,98972.69
2023-03-22T13:09:15.950Z,98964.66
2023-03-22T13:11:45.507Z,98968.53
2023-03-22T13:14:56.231Z,98953.47
2023-03-22T13:17:51.285Z,98946.69
2023-03-22T13:20:27.923Z,98951.25
2023-03-22T13:23:28.905Z,98962.63
2023-03-22T13:26:03.694Z,98950.38
2023-03-22T13:28:37.419Z,98940.25
2023-03-22T13:31:08.137Z,98935.63
2023-03-22T13:33:38.950Z,98928.25
2023-03-22T13:36:23.076Z,98929.63
2023-03-22T13:38:56.341Z,98947.00
2023-03-22T13:41:29.139Z,98944.22
2023-03-22T13:43:59.570Z,98947.00
2023-03-22T13:46:48.290Z,98930.84
2023-03-22T13:49:36.635Z,98950.09
2023-03-22T13:52:09.433Z,98947.31
2023-03-22T13:54:43.788Z,98936.63
2023-03-22T13:57:39.167Z,98895.44
2023-03-22T14:00:20.698Z,98897.56
2023-03-22T14:02:51.936Z,98897.38
2023-03-22T14:05:24.383Z,98911.28
2023-03-22T14:07:56.335Z,98879.59
2023-03-22T14:10:29.898Z,98886.69
2023-03-22T14:13:03.606Z,98884.09
2023-03-22T14:15:35.829Z,98865.59
2023-03-22T14:18:13.939Z,98850.63
2023-03-22T14:20:42.935Z,98846.88
